createdAt,value
2023-04-07T00:01:08.684Z,3.80
2023-04-07T00:03:38.813Z,3.80
2023-04-07T00:06:07.093Z,3.80
2023-04-07T00:08:34.473Z,3.70
2023-04-07T00:11:01.728Z,3.70
2023-04-07T00:13:29.630Z,3.70
2023-04-07T00:15:58.117Z,3.60
2023-04-07T00:18:25.541Z,3.60
2023-04-07T00:20:53.166Z,3.60
2023-04-07T00:23:20.427Z,3.60
2023-04-07T00:25:48.904Z,3.50
2023-04-07T00:28:16.143Z,3.50
2023-04-07T00:30:43.545Z,3.50
2023-04-07T00:33:11.215Z,3.50
2023-04-07T00:35:38.653Z,3.40
2023-04-07T00:38:06.007Z,3.40
2023-04-07T00:40:33.306Z,3.40
2023-04-07T00:43:00.498Z,3.40
2023-04-07T00:45:27.837Z,3.30
2023-04-07T00:47:58.330Z,3.30
2023-04-07T00:50:25.773Z,3.30
2023-04-07T00:52:54.959Z,3.30
2023-04-07T00:55:22.390Z,3.30
2023-04-07T00:57:50.568Z,3.30
2023-04-07T01:00:18.316Z,3.30
2023-04-07T01:02:57.807Z,3.20
2023-04-07T01:05:42.886Z,3.20
2023-04-07T01:08:30.940Z,3.20
2023-04-07T01:11:24.618Z,3.20
2023-04-07T01:13:54.423Z,3.20
2023-04-07T01:16:45.738Z,3.20
2023-04-07T01:19:53.089Z,3.20
2023-04-07T01:22:40.179Z,3.20
2023-04-07T01:25:26.567Z,3.20
2023-04-07T01:28:36.247Z,3.10
2023-04-07T01:31:05.552Z,3.10
2023-04-07T01:33:35.963Z,3.10
2023-04-07T01:36:06.645Z,3.10
2023-04-07T01:38:34.562Z,3.10
2023-04-07T01:41:03.245Z,3.10
2023-04-07T01:43:31.851Z,3.10
2023-04-07T01:46:00.588Z,3.00
2023-04-07T01:48:28.509Z,3.00
2023-04-07T01:50:56.607Z,3.00
2023-04-07T01:53:24.258Z,3.00
2023-04-07T01:55:53.675Z,3.00
2023-04-07T01:58:21.577Z,2.90
2023-04-07T02:00:50.677Z,2.90
2023-04-07T02:03:27.972Z,2.90
2023-04-07T02:05:57.882Z,2.90
2023-04-07T02:08:32.211Z,2.90
2023-04-07T02:11:03.650Z,2.90
2023-04-07T02:13:35.243Z,2.90
2023-04-07T02:16:02.786Z,2.80
2023-04-07T02:18:32.417Z,2.80
2023-04-07T02:21:02.283Z,2.80
2023-04-07T02:23:29.684Z,2.80
2023-04-07T02:26:00.261Z,2.80
2023-04-07T02:28:27.710Z,2.80
2023-04-07T02:30:54.927Z,2.70
2023-04-07T02:33:22.232Z,2.70
2023-04-07T02:35:49.475Z,2.70
2023-04-07T02:38:16.710Z,2.70
2023-04-07T02:40:44.018Z,2.70
2023-04-07T02:43:11.398Z,2.70
2023-04-07T02:45:38.646Z,2.70
2023-04-07T02:48:06.194Z,2.70
2023-04-07T02:50:33.679Z,2.70
2023-04-07T02:53:01.196Z,2.70
2023-04-07T02:55:28.640Z,2.70
2023-04-07T02:57:56.073Z,2.70
2023-04-07T03:00:44.280Z,2.70
2023-04-07T03:03:16.036Z,2.70
2023-04-07T03:05:52.267Z,2.70
2023-04-07T03:08:19.637Z,2.70
2023-04-07T03:10:47.467Z,2.60
2023-04-07T03:13:19.016Z,2.60
2023-04-07T03:15:47.287Z,2.60
2023-04-07T03:18:16.136Z,2.60
2023-04-07T03:20:47.454Z,2.50
2023-04-07T03:23:16.339Z,2.50
2023-04-07T03:25:43.716Z,2.40
2023-04-07T03:28:12.711Z,2.40
2023-04-07T03:30:40.870Z,2.40
2023-04-07T03:33:09.079Z,2.40
2023-04-07T03:35:36.503Z,2.30
2023-04-07T03:38:03.853Z,2.30
2023-04-07T03:40:33.413Z,2.30
2023-04-07T03:43:01.245Z,2.30
2023-04-07T03:45:29.746Z,2.30
2023-04-07T03:47:57.052Z,2.30
2023-04-07T03:50:25.140Z,2.20
2023-04-07T03:53:05.816Z,2.20
2023-04-07T03:55:33.981Z,2.20
2023-04-07T03:58:09.482Z,2.20
2023-04-07T04:00:38.142Z,2.10
2023-04-07T04:03:11.284Z,2.10
2023-04-07T04:05:47.204Z,2.10
2023-04-07T04:08:20.277Z,2.00
2023-04-07T04:10:47.833Z,2.00
2023-04-07T04:13:15.371Z,2.00
2023-04-07T04:15:43.680Z,2.00
2023-04-07T04:18:15.513Z,1.90
2023-04-07T04:20:43.354Z,1.90
2023-04-07T04:23:10.755Z,1.90
2023-04-07T04:25:40.753Z,1.90
2023-04-07T04:28:10.938Z,1.90
2023-04-07T04:30:38.257Z,1.90
2023-04-07T04:33:05.797Z,1.80
2023-04-07T04:35:38.177Z,1.80
2023-04-07T04:38:11.950Z,1.80
2023-04-07T04:40:44.862Z,1.80
2023-04-07T04:43:13.523Z,1.80
2023-04-07T04:45:42.154Z,1.80
2023-04-07T04:48:12.074Z,1.80
2023-04-07T04:50:39.441Z,1.70
2023-04-07T04:53:11.313Z,1.70
2023-04-07T04:55:51.710Z,1.70
2023-04-07T04:58:22.308Z,1.70
2023-04-07T05:01:00.372Z,1.70
2023-04-07T05:03:37.822Z,1.70
2023-04-07T05:06:12.648Z,1.70
2023-04-07T05:08:42.066Z,1.70
2023-04-07T05:11:09.400Z,1.70
2023-04-07T05:13:37.493Z,1.70
2023-04-07T05:16:06.638Z,1.70
2023-04-07T05:18:35.526Z,1.90
2023-04-07T05:21:04.450Z,2.20
2023-04-07T05:23:32.724Z,2.60
2023-04-07T05:26:00.404Z,3.10
2023-04-07T05:28:27.787Z,3.60
2023-04-07T05:30:58.255Z,4.20
2023-04-07T05:33:30.424Z,4.80
2023-04-07T05:35:58.013Z,5.40
2023-04-07T05:38:25.879Z,6.00
2023-04-07T05:40:57.080Z,6.60
2023-04-07T05:43:27.972Z,7.30
2023-04-07T05:45:56.261Z,7.90
2023-04-07T05:48:24.302Z,8.50
2023-04-07T05:50:55.501Z,9.00
2023-04-07T05:53:22.968Z,9.60
2023-04-07T05:55:50.726Z,10.20
2023-04-07T05:58:37.062Z,10.70
2023-04-07T06:01:04.820Z,11.20
2023-04-07T06:03:32.471Z,11.70
2023-04-07T06:06:11.802Z,12.10
2023-04-07T06:08:39.245Z,12.60
2023-04-07T06:11:06.816Z,13.00
2023-04-07T06:13:34.980Z,13.30
2023-04-07T06:16:03.471Z,13.60
2023-04-07T06:18:31.139Z,14.00
2023-04-07T06:20:59.205Z,14.30
2023-04-07T06:23:26.650Z,14.60
2023-04-07T06:25:54.198Z,14.90
2023-04-07T06:28:23.250Z,15.30
2023-04-07T06:30:50.954Z,15.60
2023-04-07T06:33:18.711Z,15.90
2023-04-07T06:35:46.585Z,16.20
2023-04-07T06:38:13.977Z,16.50
2023-04-07T06:40:41.348Z,16.70
2023-04-07T06:43:08.750Z,17.00
2023-04-07T06:45:49.534Z,17.30
2023-04-07T06:48:16.827Z,17.60
2023-04-07T06:50:49.556Z,17.90
2023-04-07T06:53:17.244Z,18.10
2023-04-07T06:55:44.719Z,18.30
2023-04-07T06:58:12.283Z,18.30
2023-04-07T07:00:39.606Z,18.50
2023-04-07T07:03:07.188Z,18.70
2023-04-07T07:05:34.716Z,18.90
2023-04-07T07:08:02.377Z,19.10
2023-04-07T07:10:29.692Z,19.30
2023-04-07T07:12:57.277Z,19.50
2023-04-07T07:15:24.940Z,19.70
2023-04-07T07:17:52.285Z,19.90
2023-04-07T07:20:19.844Z,20.10
2023-04-07T07:22:47.325Z,20.40
2023-04-07T07:25:14.592Z,20.70
2023-04-07T07:27:41.779Z,20.90
2023-04-07T07:30:09.360Z,21.10
2023-04-07T07:32:36.944Z,21.40
2023-04-07T07:35:04.562Z,21.60
2023-04-07T07:37:31.815Z,21.80
2023-04-07T07:39:59.186Z,22.00
2023-04-07T07:42:26.409Z,22.10
2023-04-07T07:44:53.786Z,22.30
2023-04-07T07:47:22.582Z,22.40
2023-04-07T07:49:49.954Z,22.40
2023-04-07T07:52:17.402Z,22.50
2023-04-07T07:54:44.842Z,22.50
2023-04-07T07:57:12.346Z,22.40
2023-04-07T07:59:41.363Z,22.40
2023-04-07T08:02:09.689Z,22.30
2023-04-07T08:04:37.424Z,22.20
2023-04-07T08:07:04.846Z,21.90
2023-04-07T08:09:32.463Z,21.80
2023-04-07T08:11:59.845Z,21.70
2023-04-07T08:14:27.301Z,21.60
2023-04-07T08:16:54.613Z,21.70
2023-04-07T08:19:22.192Z,21.80
2023-04-07T08:21:49.389Z,21.90
2023-04-07T08:24:16.687Z,22.00
2023-04-07T08:26:45.530Z,22.10
2023-04-07T08:29:13.035Z,22.20
2023-04-07T08:31:40.765Z,22.30
2023-04-07T08:34:08.492Z,22.40
2023-04-07T08:36:36.100Z,22.50
2023-04-07T08:39:05.676Z,22.60
2023-04-07T08:41:40.970Z,22.70
2023-04-07T08:44:09.469Z,22.80
2023-04-07T08:46:39.928Z,23.00
2023-04-07T08:49:13.690Z,23.20
2023-04-07T08:51:48.387Z,23.40
2023-04-07T08:54:18.780Z,23.60
2023-04-07T08:56:46.242Z,23.80
2023-04-07T08:59:18.197Z,23.90
2023-04-07T09:01:47.213Z,24.00
2023-04-07T09:04:14.815Z,24.10
2023-04-07T09:06:42.249Z,24.20
2023-04-07T09:09:09.502Z,24.30
2023-04-07T09:11:38.466Z,24.40
2023-04-07T09:14:05.958Z,24.50
2023-04-07T09:16:33.664Z,24.70
2023-04-07T09:19:01.085Z,24.90
2023-04-07T09:21:51.204Z,25.00
2023-04-07T09:24:23.016Z,25.10
2023-04-07T09:26:50.738Z,25.20
2023-04-07T09:29:20.711Z,25.20
2023-04-07T09:31:55.214Z,25.10
2023-04-07T09:34:32.928Z,25.00
2023-04-07T09:37:01.368Z,24.60
2023-04-07T09:39:29.332Z,24.40
2023-04-07T09:41:58.043Z,24.20
2023-04-07T09:44:26.382Z,23.90
2023-04-07T09:46:58.711Z,23.60
2023-04-07T09:49:26.597Z,23.30
2023-04-07T09:51:53.804Z,23.00
2023-04-07T09:54:38.761Z,22.60
2023-04-07T09:57:08.132Z,22.20
2023-04-07T09:59:42.531Z,21.80
2023-04-07T10:02:10.890Z,21.50
2023-04-07T10:04:40.423Z,21.30
2023-04-07T10:07:07.970Z,21.00
2023-04-07T10:09:35.531Z,20.70
2023-04-07T10:12:04.204Z,20.50
2023-04-07T10:14:32.317Z,20.10
2023-04-07T10:17:04.057Z,19.80
2023-04-07T10:19:35.741Z,19.50
2023-04-07T10:22:05.318Z,19.20
2023-04-07T10:24:48.842Z,19.00
2023-04-07T10:27:24.151Z,18.80
2023-04-07T10:29:53.083Z,18.70
2023-04-07T10:32:20.512Z,18.60
2023-04-07T10:34:50.857Z,18.50
2023-04-07T10:37:21.188Z,18.40
2023-04-07T10:40:13.800Z,18.40
2023-04-07T10:42:41.156Z,18.40
2023-04-07T10:45:09.561Z,18.40
2023-04-07T10:47:58.540Z,18.50
2023-04-07T10:50:26.502Z,18.50
2023-04-07T10:53:12.218Z,18.60
2023-04-07T10:55:47.056Z,18.60
2023-04-07T10:58:15.465Z,18.70
2023-04-07T11:01:06.267Z,18.80
2023-04-07T11:03:40.877Z,19.00
2023-04-07T11:06:13.750Z,19.00
2023-04-07T11:08:48.906Z,19.10
2023-04-07T11:11:21.565Z,19.10
2023-04-07T11:13:50.871Z,19.00
2023-04-07T11:16:20.263Z,19.00
2023-04-07T11:18:48.333Z,19.00
2023-04-07T11:21:19.907Z,19.00
2023-04-07T11:23:48.562Z,19.00
2023-04-07T11:26:16.921Z,19.00
2023-04-07T11:28:52.866Z,19.00
2023-04-07T11:31:33.929Z,19.00
2023-04-07T11:34:04.908Z,19.10
2023-04-07T11:36:35.331Z,19.00
2023-04-07T11:39:03.130Z,19.00
2023-04-07T11:41:32.812Z,19.00
2023-04-07T11:44:08.942Z,19.00
2023-04-07T11:46:37.295Z,19.00
2023-04-07T11:49:13.339Z,19.00
2023-04-07T11:51:43.167Z,19.00
2023-04-07T11:54:11.369Z,19.00
2023-04-07T11:56:46.993Z,19.00
2023-04-07T11:59:25.408Z,19.00
2023-04-07T12:01:56.155Z,18.90
2023-04-07T12:04:24.533Z,18.90
2023-04-07T12:06:52.012Z,18.90
2023-04-07T12:09:29.336Z,18.90
2023-04-07T12:11:58.385Z,19.00
2023-04-07T12:14:27.719Z,19.00
2023-04-07T12:16:57.604Z,19.00
2023-04-07T12:19:29.832Z,19.00
2023-04-07T12:21:57.267Z,19.00
2023-04-07T12:24:24.855Z,19.10
2023-04-07T12:26:52.278Z,19.00
2023-04-07T12:29:20.258Z,19.00
2023-04-07T12:31:50.856Z,19.00
2023-04-07T12:34:18.990Z,19.00
2023-04-07T12:36:46.252Z,19.00
2023-04-07T12:39:13.634Z,19.10
2023-04-07T12:41:41.868Z,19.10
2023-04-07T12:44:09.924Z,19.20
2023-04-07T12:46:37.586Z,19.10
2023-04-07T12:49:05.053Z,19.10
2023-04-07T12:51:33.824Z,19.20
2023-04-07T12:54:01.721Z,19.10
2023-04-07T12:56:29.676Z,19.20
2023-04-07T12:58:56.978Z,19.20
2023-04-07T13:01:24.406Z,19.20
2023-04-07T13:03:52.859Z,19.20
2023-04-07T13:06:20.684Z,19.20
2023-04-07T13:08:48.020Z,19.20
2023-04-07T13:11:15.571Z,19.00
2023-04-07T13:13:42.913Z,19.00
2023-04-07T13:16:10.409Z,18.90
2023-04-07T13:18:37.729Z,18.80
2023-04-07T13:21:40.388Z,18.80
2023-04-07T13:23:52.995Z,18.80
2023-04-07T13:26:20.562Z,18.90
2023-04-07T13:28:47.987Z,18.90
2023-04-07T13:31:16.210Z,18.90
2023-04-07T13:33:43.778Z,19.00
2023-04-07T13:36:11.051Z,19.10
2023-04-07T13:38:38.294Z,19.10
2023-04-07T13:41:05.880Z,19.30
2023-04-07T13:43:33.221Z,19.30
2023-04-07T13:46:00.450Z,19.40
2023-04-07T13:48:28.009Z,19.50
2023-04-07T13:50:55.564Z,19.60
2023-04-07T13:53:23.538Z,19.60
2023-04-07T13:55:50.786Z,19.70
2023-04-07T13:58:18.204Z,19.70
2023-04-07T14:00:45.619Z,19.70
2023-04-07T14:03:12.895Z,19.60
2023-04-07T14:05:40.257Z,19.50
2023-04-07T14:08:07.673Z,19.40
2023-04-07T14:10:36.161Z,19.30
2023-04-07T14:13:03.369Z,19.20
2023-04-07T14:15:30.617Z,19.10
2023-04-07T14:17:57.855Z,19.00
2023-04-07T14:20:27.106Z,19.00
2023-04-07T14:22:54.815Z,19.00
2023-04-07T14:25:22.281Z,18.90
2023-04-07T14:27:49.536Z,18.80
2023-04-07T14:30:16.923Z,18.70
2023-04-07T14:32:44.458Z,18.70
2023-04-07T14:35:11.756Z,18.60
2023-04-07T14:37:39.185Z,18.60
2023-04-07T14:40:07.386Z,18.60
2023-04-07T14:42:35.650Z,18.50
2023-04-07T14:45:04.409Z,18.50
2023-04-07T14:47:31.919Z,18.50
2023-04-07T14:49:59.449Z,18.50
2023-04-07T14:52:27.082Z,18.50
2023-04-07T14:54:54.375Z,18.50
2023-04-07T14:57:22.748Z,18.50
2023-04-07T14:59:50.225Z,18.50
2023-04-07T15:02:17.664Z,18.50
2023-04-07T15:04:45.112Z,18.60
2023-04-07T15:07:12.709Z,18.60
2023-04-07T15:09:40.427Z,18.60
2023-04-07T15:12:07.904Z,18.70
2023-04-07T15:14:35.845Z,18.70
2023-04-07T15:17:03.329Z,18.80
2023-04-07T15:19:30.720Z,18.80
2023-04-07T15:21:58.308Z,18.80
2023-04-07T15:24:25.746Z,18.80
2023-04-07T15:26:53.082Z,18.90
2023-04-07T15:29:20.351Z,18.80
2023-04-07T15:31:47.897Z,18.80
2023-04-07T15:34:15.221Z,18.80
2023-04-07T15:36:42.597Z,18.80
2023-04-07T15:39:10.109Z,18.70
2023-04-07T15:41:38.147Z,18.70
2023-04-07T15:44:06.259Z,18.70
2023-04-07T15:46:33.657Z,18.70
2023-04-07T15:49:01.149Z,18.70
2023-04-07T15:51:29.950Z,18.70
2023-04-07T15:53:57.205Z,18.70
2023-04-07T15:56:24.748Z,18.70
2023-04-07T15:58:52.340Z,18.70
2023-04-07T16:01:20.037Z,18.70
2023-04-07T16:03:47.774Z,18.70
2023-04-07T16:06:15.442Z,18.60
2023-04-07T16:08:42.885Z,18.60
2023-04-07T16:11:10.233Z,18.60
2023-04-07T16:13:37.639Z,18.60
2023-04-07T16:16:05.247Z,18.50
2023-04-07T16:18:32.617Z,18.60
2023-04-07T16:21:01.884Z,18.40
2023-04-07T16:23:30.441Z,18.40
2023-04-07T16:25:57.686Z,18.30
2023-04-07T16:28:25.045Z,18.20
2023-04-07T16:30:52.556Z,18.20
2023-04-07T16:33:19.845Z,18.20
2023-04-07T16:35:47.066Z,18.10
2023-04-07T16:38:14.292Z,18.10
2023-04-07T16:40:56.856Z,18.00
2023-04-07T16:43:30.419Z,18.00
2023-04-07T16:45:59.913Z,17.90
2023-04-07T16:48:27.435Z,17.90
2023-04-07T16:50:54.637Z,17.90
2023-04-07T16:53:21.992Z,17.80
2023-04-07T16:55:49.312Z,17.80
2023-04-07T16:58:18.967Z,17.70
2023-04-07T17:00:46.743Z,17.70
2023-04-07T17:03:15.327Z,17.60
2023-04-07T17:05:44.501Z,17.60
2023-04-07T17:08:12.319Z,17.50
2023-04-07T17:10:39.617Z,17.50
2023-04-07T17:13:06.815Z,17.30
2023-04-07T17:15:38.036Z,17.20
2023-04-07T17:18:05.794Z,17.10
2023-04-07T17:20:33.119Z,17.00
2023-04-07T17:23:00.486Z,16.90
2023-04-07T17:25:27.753Z,16.80
2023-04-07T17:27:55.153Z,16.70
2023-04-07T17:30:22.612Z,16.50
2023-04-07T17:32:53.562Z,16.40
2023-04-07T17:35:21.631Z,16.30
2023-04-07T17:37:50.029Z,16.20
2023-04-07T17:40:17.374Z,16.00
2023-04-07T17:42:45.802Z,15.90
2023-04-07T17:45:13.077Z,15.80
2023-04-07T17:47:40.737Z,15.70
2023-04-07T17:50:09.188Z,15.60
2023-04-07T17:52:36.458Z,15.60
2023-04-07T17:55:03.852Z,15.50
2023-04-07T17:57:31.707Z,15.40
2023-04-07T17:59:59.211Z,15.30
2023-04-07T18:02:26.922Z,15.30
2023-04-07T18:04:56.100Z,15.20
2023-04-07T18:07:23.828Z,15.10
2023-04-07T18:09:51.227Z,15.00
2023-04-07T18:12:18.651Z,15.00
2023-04-07T18:14:46.040Z,14.90
2023-04-07T18:17:13.249Z,14.90
2023-04-07T18:19:40.902Z,14.80
2023-04-07T18:22:09.849Z,14.70
2023-04-07T18:24:37.426Z,14.70
2023-04-07T18:27:05.357Z,14.60
2023-04-07T18:29:32.607Z,14.60
2023-04-07T18:31:59.818Z,14.50
2023-04-07T18:34:27.196Z,14.40
2023-04-07T18:36:55.336Z,14.40
2023-04-07T18:39:22.999Z,14.30
2023-04-07T18:41:50.905Z,14.20
2023-04-07T18:44:18.362Z,14.10
2023-04-07T18:46:48.612Z,14.10
2023-04-07T18:49:16.974Z,14.00
2023-04-07T18:51:45.917Z,14.00
2023-04-07T18:54:13.130Z,14.00
2023-04-07T18:56:40.551Z,13.90
2023-04-07T18:59:08.228Z,13.90
2023-04-07T19:01:35.721Z,13.80
2023-04-07T19:04:03.421Z,13.80
2023-04-07T19:06:31.975Z,13.80
2023-04-07T19:08:59.757Z,13.70
2023-04-07T19:11:27.230Z,13.70
2023-04-07T19:13:56.303Z,13.60
2023-04-07T19:16:26.643Z,13.60
2023-04-07T19:18:54.169Z,13.50
2023-04-07T19:21:21.544Z,13.50
2023-04-07T19:23:48.905Z,13.40
2023-04-07T19:26:16.874Z,13.40
2023-04-07T19:28:44.308Z,13.30
2023-04-07T19:31:11.863Z,13.20
2023-04-07T19:33:39.315Z,13.20
2023-04-07T19:36:06.813Z,13.10
2023-04-07T19:38:34.171Z,13.00
2023-04-07T19:41:01.808Z,12.90
2023-04-07T19:43:29.202Z,12.80
2023-04-07T19:45:56.493Z,12.70
2023-04-07T19:48:23.923Z,12.70
2023-04-07T19:50:51.473Z,12.60
2023-04-07T19:53:19.104Z,12.50
2023-04-07T19:55:47.745Z,12.40
2023-04-07T19:58:20.928Z,12.30
2023-04-07T20:00:50.722Z,12.20
2023-04-07T20:03:19.700Z,12.10
2023-04-07T20:05:47.277Z,12.10
2023-04-07T20:08:14.799Z,12.00
2023-04-07T20:10:42.248Z,11.90
2023-04-07T20:13:10.388Z,11.90
2023-04-07T20:15:37.661Z,11.80
2023-04-07T20:18:04.917Z,11.70
2023-04-07T20:20:32.115Z,11.70
2023-04-07T20:22:59.317Z,11.60
2023-04-07T20:25:26.538Z,11.50
2023-04-07T20:27:53.940Z,11.50
2023-04-07T20:30:21.319Z,11.40
2023-04-07T20:32:48.747Z,11.40
2023-04-07T20:35:16.769Z,11.30
2023-04-07T20:37:44.593Z,11.20
2023-04-07T20:40:12.372Z,11.20
2023-04-07T20:42:39.821Z,11.10
2023-04-07T20:45:07.822Z,11.10
2023-04-07T20:47:36.641Z,11.00
2023-04-07T20:50:04.634Z,11.00
2023-04-07T20:52:32.052Z,11.00
2023-04-07T20:54:59.795Z,10.90
2023-04-07T20:57:28.364Z,10.90
2023-04-07T20:59:55.752Z,10.80
2023-04-07T21:02:23.263Z,10.80
2023-04-07T21:04:50.817Z,10.70
2023-04-07T21:07:18.095Z,10.70
2023-04-07T21:09:45.421Z,10.70
2023-04-07T21:12:14.090Z,10.60
2023-04-07T21:14:41.310Z,10.60
2023-04-07T21:17:08.824Z,10.50
2023-04-07T21:19:36.578Z,10.50
2023-04-07T21:22:04.889Z,10.40
2023-04-07T21:24:32.509Z,10.40
2023-04-07T21:26:59.765Z,10.30
2023-04-07T21:29:29.615Z,10.30
2023-04-07T21:31:57.064Z,10.30
2023-04-07T21:34:24.408Z,10.20
2023-04-07T21:36:51.782Z,10.20
2023-04-07T21:39:19.093Z,10.20
2023-04-07T21:41:46.308Z,10.10
2023-04-07T21:44:13.723Z,10.10
2023-04-07T21:46:41.220Z,10.10
2023-04-07T21:49:08.772Z,10.10
2023-04-07T21:51:37.442Z,10.10
2023-04-07T21:54:05.246Z,10.10
2023-04-07T21:56:32.917Z,10.10
2023-04-07T21:59:00.407Z,10.10
2023-04-07T22:01:28.226Z,10.10
2023-04-07T22:03:55.996Z,10.10
2023-04-07T22:06:23.567Z,10.20
2023-04-07T22:09:00.543Z,10.20
2023-04-07T22:11:29.727Z,10.20
2023-04-07T22:13:57.650Z,10.30
2023-04-07T22:16:25.195Z,10.30
2023-04-07T22:18:52.638Z,10.30
2023-04-07T22:21:19.914Z,10.40
2023-04-07T22:23:47.252Z,10.40
2023-04-07T22:26:14.686Z,10.40
2023-04-07T22:28:41.957Z,10.50
2023-04-07T22:31:09.321Z,10.50
2023-04-07T22:33:37.172Z,10.50
2023-04-07T22:36:04.692Z,10.50
2023-04-07T22:38:31.993Z,10.50
2023-04-07T22:40:59.263Z,10.50
2023-04-07T22:43:26.517Z,10.50
2023-04-07T22:45:54.061Z,10.50
2023-04-07T22:48:21.434Z,10.50
2023-04-07T22:50:48.627Z,10.40
2023-04-07T22:53:16.296Z,10.40
2023-04-07T22:55:43.627Z,10.40
2023-04-07T22:58:10.848Z,10.30
2023-04-07T23:00:38.256Z,10.30
2023-04-07T23:03:05.696Z,10.20
2023-04-07T23:05:33.125Z,10.10
2023-04-07T23:08:00.346Z,10.10
2023-04-07T23:10:27.721Z,10.00
2023-04-07T23:12:54.977Z,9.90
2023-04-07T23:15:22.482Z,9.90
2023-04-07T23:17:49.798Z,9.80
2023-04-07T23:20:17.145Z,9.80
2023-04-07T23:22:44.458Z,9.80
2023-04-07T23:25:11.721Z,9.80
2023-04-07T23:27:39.075Z,9.70
2023-04-07T23:30:07.429Z,9.70
2023-04-07T23:32:34.988Z,9.70
2023-04-07T23:35:02.299Z,9.70
2023-04-07T23:37:29.617Z,9.70
2023-04-07T23:39:56.970Z,9.70
2023-04-07T23:42:24.364Z,9.70
2023-04-07T23:44:51.949Z,9.70
2023-04-07T23:47:19.469Z,9.70
2023-04-07T23:49:46.790Z,9.70
2023-04-07T23:52:15.125Z,9.70
2023-04-07T23:54:42.837Z,9.70
2023-04-07T23:57:10.068Z,9.70
2023-04-07T23:59:37.367Z,9.70
